Time;durP1;ratioP1;P1;durP2;ratioP2;P2;SDS_P1;SDS_P2;PMS_P1;PMS_P2;Temp;Humidity;BMP_temperature;BMP_pressure;BME280_temperature;BME280_humidity;BME280_pressure;Samples;Min_cycle;Max_cycle;Signal;HPM_P1;HPM_P2
2023/10/21 00:00:25;;;;;;;29.08;11.40;;;13.30;99.90;;;;;;5049990;28;20494;-76
2023/10/21 00:02:51;;;;;;;27.98;11.35;;;13.30;99.90;;;;;;5047216;28;20068;-76
2023/10/21 00:05:17;;;;;;;26.92;11.15;;;13.30;99.90;;;;;;5053173;28;20017;-76
2023/10/21 00:07:43;;;;;;;23.02;10.57;;;13.30;99.90;;;;;;5052461;28;20513;-76
2023/10/21 00:10:08;;;;;;;20.75;10.55;;;13.20;99.90;;;;;;5053071;28;20146;-76
2023/10/21 00:12:35;;;;;;;21.55;10.70;;;13.20;99.90;;;;;;5052374;28;20021;-76
2023/10/21 00:15:05;;;;;;;29.08;11.20;;;13.20;99.90;;;;;;5052207;28;20052;-76
2023/10/21 00:17:30;;;;;;;26.88;11.20;;;13.20;99.90;;;;;;5051933;28;20025;-76
2023/10/21 00:19:56;;;;;;;27.23;11.38;;;13.20;99.90;;;;;;5052660;28;20150;-76
2023/10/21 00:22:22;;;;;;;25.48;11.02;;;13.20;99.90;;;;;;5050204;28;20033;-76
2023/10/21 00:24:47;;;;;;;27.27;11.88;;;13.20;99.90;;;;;;5041663;28;20091;-76
2023/10/21 00:27:13;;;;;;;28.00;11.15;;;13.20;99.90;;;;;;5049258;28;20025;-76
2023/10/21 00:29:39;;;;;;;31.48;11.82;;;13.20;99.90;;;;;;5050814;28;20031;-76
2023/10/21 00:32:05;;;;;;;27.48;10.77;;;13.20;99.90;;;;;;5051584;28;20389;-76
2023/10/21 00:34:31;;;;;;;23.63;11.27;;;13.20;99.90;;;;;;5052714;28;20020;-76
2023/10/21 00:36:57;;;;;;;26.30;11.07;;;13.20;99.90;;;;;;5051639;28;20432;-76
2023/10/21 00:39:22;;;;;;;24.65;11.00;;;13.20;99.90;;;;;;5051649;28;20033;-76
2023/10/21 00:41:48;;;;;;;19.50;10.35;;;13.20;99.90;;;;;;5052198;28;20026;-76
2023/10/21 00:44:14;;;;;;;25.50;10.68;;;13.20;99.90;;;;;;5046157;28;20028;-76
2023/10/21 00:46:40;;;;;;;24.75;10.50;;;13.20;99.90;;;;;;5051497;28;20029;-76
2023/10/21 00:49:06;;;;;;;25.05;10.65;;;13.20;99.90;;;;;;5051742;28;20028;-76
2023/10/21 00:51:33;;;;;;;30.73;11.32;;;13.20;99.90;;;;;;5051252;28;20025;-76
2023/10/21 00:54:01;;;;;;;22.52;10.63;;;13.20;99.90;;;;;;5056543;28;20021;-76
2023/10/21 00:56:27;;;;;;;24.60;11.02;;;13.20;99.90;;;;;;5044089;28;20051;-76
2023/10/21 00:58:53;;;;;;;27.23;11.07;;;13.20;99.90;;;;;;5051287;28;20527;-76
2023/10/21 01:01:19;;;;;;;23.08;10.27;;;13.20;99.90;;;;;;5051083;28;20087;-76
2023/10/21 01:03:45;;;;;;;22.50;10.80;;;13.20;99.90;;;;;;5045552;28;20029;-76
2023/10/21 01:06:10;;;;;;;27.63;10.82;;;13.20;99.90;;;;;;5048050;28;20096;-76
2023/10/21 01:08:43;;;;;;;21.98;10.35;;;13.20;99.90;;;;;;5042933;28;20021;-76
2023/10/21 01:11:09;;;;;;;24.10;10.57;;;13.20;99.90;;;;;;5051331;28;20016;-76
2023/10/21 01:13:35;;;;;;;27.85;10.48;;;13.20;99.90;;;;;;5050411;28;20058;-76
2023/10/21 01:16:01;;;;;;;27.15;10.98;;;13.20;99.90;;;;;;5045104;28;20025;-76
2023/10/21 01:18:30;;;;;;;30.60;11.23;;;13.20;99.90;;;;;;5051032;28;20029;-76
2023/10/21 01:20:56;;;;;;;25.05;11.27;;;13.20;99.90;;;;;;5063809;28;20021;-77
2023/10/21 01:23:21;;;;;;;28.83;10.88;;;13.20;99.90;;;;;;5050964;28;20354;-76
2023/10/21 01:25:47;;;;;;;25.88;10.18;;;13.20;99.90;;;;;;5045333;28;20094;-76
2023/10/21 01:28:13;;;;;;;27.48;10.93;;;13.20;99.90;;;;;;5050992;28;20021;-76
2023/10/21 01:30:39;;;;;;;29.00;10.63;;;13.20;99.90;;;;;;5050490;28;20221;-76
2023/10/21 01:33:05;;;;;;;24.63;10.25;;;13.20;99.90;;;;;;5050926;28;20025;-76
2023/10/21 01:35:30;;;;;;;25.60;11.50;;;13.20;99.90;;;;;;5050515;28;20408;-77
2023/10/21 01:37:56;;;;;;;30.02;10.98;;;13.20;99.90;;;;;;5050854;28;20028;-76
2023/10/21 01:40:21;;;;;;;28.63;11.13;;;13.20;99.90;;;;;;5050568;28;20378;-76
2023/10/21 01:42:47;;;;;;;29.40;11.68;;;13.20;99.90;;;;;;5050287;28;20394;-77
2023/10/21 01:45:13;;;;;;;22.63;11.35;;;13.20;99.90;;;;;;5049126;28;20020;-76
2023/10/21 01:47:39;;;;;;;22.77;11.25;;;13.20;99.90;;;;;;5044347;28;20551;-76
2023/10/21 01:50:08;;;;;;;23.20;11.27;;;13.20;99.90;;;;;;5065715;28;20107;-76
2023/10/21 01:52:35;;;;;;;23.23;11.43;;;13.20;99.90;;;;;;5050587;28;20048;-76
2023/10/21 01:55:05;;;;;;;30.45;11.85;;;13.20;99.90;;;;;;5050070;28;20385;-76
2023/10/21 01:57:32;;;;;;;25.55;11.48;;;13.20;99.90;;;;;;5041352;28;20429;-76
2023/10/21 01:59:59;;;;;;;29.67;12.18;;;13.20;99.90;;;;;;5049017;28;20022;-77
2023/10/21 02:02:25;;;;;;;31.15;12.23;;;13.20;99.90;;;;;;5050004;28;20498;-76
2023/10/21 02:04:51;;;;;;;27.23;12.32;;;13.20;99.90;;;;;;5049770;28;20025;-76
2023/10/21 02:07:16;;;;;;;24.85;12.10;;;13.20;99.90;;;;;;5050231;28;20016;-76
2023/10/21 02:09:42;;;;;;;35.28;12.77;;;13.10;99.90;;;;;;5049904;28;20112;-76
2023/10/21 02:12:09;;;;;;;31.77;12.50;;;13.10;99.90;;;;;;5049539;28;20032;-76
2023/10/21 02:14:35;;;;;;;27.42;13.05;;;13.10;99.90;;;;;;5050004;28;20536;-76
2023/10/21 02:17:00;;;;;;;31.58;14.18;;;13.10;99.90;;;;;;5049263;28;20045;-76
2023/10/21 02:19:26;;;;;;;28.17;13.27;;;13.10;99.90;;;;;;5050210;28;20025;-76
2023/10/21 02:21:52;;;;;;;29.20;14.45;;;13.20;99.90;;;;;;5049402;28;20025;-76
2023/10/21 02:24:17;;;;;;;27.50;13.90;;;13.10;99.90;;;;;;5049408;28;20070;-76
2023/10/21 02:26:43;;;;;;;28.02;13.88;;;13.20;99.90;;;;;;5049336;28;20029;-76
2023/10/21 02:29:09;;;;;;;42.03;15.02;;;13.20;99.90;;;;;;5049479;28;20036;-76
2023/10/21 02:31:34;;;;;;;30.08;13.70;;;13.20;99.90;;;;;;5049484;28;20096;-76
2023/10/21 02:34:00;;;;;;;31.63;13.90;;;13.20;99.90;;;;;;5049392;28;20388;-76
2023/10/21 02:36:26;;;;;;;31.90;13.85;;;13.20;99.90;;;;;;5049656;28;20025;-77
2023/10/21 02:38:52;;;;;;;25.70;13.52;;;13.20;99.90;;;;;;5049881;28;20071;-76
2023/10/21 02:41:17;;;;;;;24.00;12.43;;;13.20;99.90;;;;;;5045679;28;20044;-76
2023/10/21 02:43:43;;;;;;;27.33;13.77;;;13.20;99.90;;;;;;5049163;28;20037;-76
2023/10/21 02:46:13;;;;;;;32.67;13.82;;;13.20;99.90;;;;;;5047740;28;20017;-76
2023/10/21 02:48:40;;;;;;;27.80;13.95;;;13.20;99.90;;;;;;5045873;28;20047;-76
2023/10/21 02:51:13;;;;;;;26.27;14.18;;;13.20;99.90;;;;;;5043369;28;20104;-76
2023/10/21 02:53:39;;;;;;;30.42;12.60;;;13.20;99.90;;;;;;5045382;28;20501;-76
2023/10/21 02:56:06;;;;;;;29.42;13.65;;;13.20;99.90;;;;;;5049789;28;20021;-77
2023/10/21 02:58:34;;;;;;;25.42;13.50;;;13.20;99.90;;;;;;5049043;28;20057;-76
2023/10/21 03:01:04;;;;;;;28.17;13.02;;;13.20;99.90;;;;;;5047599;28;20021;-76
2023/10/21 03:03:30;;;;;;;26.02;12.50;;;13.20;99.90;;;;;;5049056;28;20024;-76
2023/10/21 03:05:55;;;;;;;29.40;12.27;;;13.20;99.90;;;;;;5049636;28;20428;-76
2023/10/21 03:08:21;;;;;;;29.25;12.40;;;13.20;99.90;;;;;;5038294;28;20108;-77
2023/10/21 03:10:48;;;;;;;32.10;13.05;;;13.20;99.90;;;;;;5049137;28;20492;-76
2023/10/21 03:13:13;;;;;;;29.52;12.30;;;13.10;99.90;;;;;;5049623;28;20492;-77
2023/10/21 03:15:39;;;;;;;27.77;11.68;;;13.10;99.90;;;;;;5045010;28;20018;-76
2023/10/21 03:18:04;;;;;;;20.98;11.65;;;13.10;99.90;;;;;;5049514;28;20521;-76
2023/10/21 03:20:33;;;;;;;28.33;11.68;;;13.10;99.90;;;;;;5049090;28;20059;-76
2023/10/21 03:22:59;;;;;;;23.63;11.30;;;13.10;99.90;;;;;;5048472;28;20500;-76
2023/10/21 03:25:25;;;;;;;28.20;11.35;;;13.00;99.90;;;;;;5049637;28;20072;-76
2023/10/21 03:27:50;;;;;;;22.60;11.30;;;13.00;99.90;;;;;;5045578;28;20036;-76
2023/10/21 03:30:17;;;;;;;22.63;11.50;;;13.00;99.90;;;;;;5049912;28;20059;-76
2023/10/21 03:32:43;;;;;;;22.63;11.15;;;13.00;99.90;;;;;;5046775;28;20393;-76
2023/10/21 03:35:09;;;;;;;27.55;11.43;;;13.00;99.90;;;;;;5049427;28;20020;-76
2023/10/21 03:37:35;;;;;;;25.35;10.70;;;13.00;99.90;;;;;;5048249;28;20112;-76
2023/10/21 03:40:01;;;;;;;25.92;10.85;;;13.00;99.90;;;;;;5040333;28;20128;-77
2023/10/21 03:42:26;;;;;;;24.67;10.93;;;13.00;99.90;;;;;;5047438;28;20489;-77
2023/10/21 03:44:52;;;;;;;22.15;10.38;;;13.00;99.90;;;;;;5049878;28;20099;-76
2023/10/21 03:47:17;;;;;;;28.58;10.55;;;13.00;99.90;;;;;;5052831;28;20025;-77
2023/10/21 03:49:43;;;;;;;19.75;9.63;;;13.00;99.90;;;;;;5053439;28;20025;-76
2023/10/21 03:52:08;;;;;;;23.73;9.93;;;13.00;99.90;;;;;;5049446;28;20132;-76
2023/10/21 03:54:34;;;;;;;23.42;10.05;;;13.00;99.90;;;;;;5043770;28;20026;-76
2023/10/21 03:56:59;;;;;;;21.55;10.30;;;13.00;99.90;;;;;;5048457;28;20021;-77
2023/10/21 03:59:25;;;;;;;27.58;10.85;;;12.90;99.90;;;;;;5050888;28;20112;-76
2023/10/21 04:01:51;;;;;;;22.40;10.55;;;12.90;99.90;;;;;;5047291;28;20021;-77
2023/10/21 04:04:16;;;;;;;28.20;10.48;;;12.90;99.90;;;;;;5044884;28;20509;-76
2023/10/21 04:06:42;;;;;;;21.63;9.95;;;12.90;99.90;;;;;;5051714;28;20029;-76
2023/10/21 04:09:09;;;;;;;26.65;9.93;;;12.90;99.90;;;;;;5049738;28;20474;-77
2023/10/21 04:11:35;;;;;;;26.00;10.07;;;12.90;99.90;;;;;;5052878;28;20021;-76
2023/10/21 04:14:01;;;;;;;23.20;10.07;;;12.90;99.90;;;;;;5047552;28;20048;-76
2023/10/21 04:16:26;;;;;;;23.15;10.00;;;12.90;99.90;;;;;;5052853;28;20025;-76
2023/10/21 04:18:52;;;;;;;21.67;9.43;;;12.90;99.90;;;;;;5051634;28;20779;-77
2023/10/21 04:21:19;;;;;;;23.58;9.70;;;12.80;99.90;;;;;;5052307;28;20083;-77
2023/10/21 04:23:44;;;;;;;18.58;8.57;;;12.80;99.90;;;;;;5052367;28;20061;-76
2023/10/21 04:26:10;;;;;;;21.85;8.85;;;12.80;99.90;;;;;;5051341;28;20072;-76
2023/10/21 04:28:35;;;;;;;20.83;8.43;;;12.80;99.90;;;;;;5050274;28;20482;-77
2023/10/21 04:31:01;;;;;;;19.95;8.18;;;12.80;99.90;;;;;;5046542;28;20021;-76
2023/10/21 04:33:26;;;;;;;20.40;8.45;;;12.80;99.90;;;;;;5041459;28;20028;-76
2023/10/21 04:35:52;;;;;;;17.98;8.20;;;12.80;99.90;;;;;;5051312;28;20021;-76
2023/10/21 04:38:18;;;;;;;20.40;7.47;;;12.80;99.90;;;;;;5051762;28;20048;-76
2023/10/21 04:40:43;;;;;;;27.30;7.68;;;12.90;99.90;;;;;;5051719;28;20021;-76
2023/10/21 04:43:09;;;;;;;23.10;8.77;;;12.90;99.90;;;;;;5049126;28;20505;-76
2023/10/21 04:45:35;;;;;;;28.83;9.32;;;13.00;99.90;;;;;;5051782;28;20041;-76
2023/10/21 04:48:00;;;;;;;28.88;9.90;;;13.00;99.90;;;;;;5046985;28;20021;-76
2023/10/21 04:50:27;;;;;;;22.02;9.85;;;13.10;99.90;;;;;;5047822;28;20061;-76
2023/10/21 04:52:52;;;;;;;23.75;9.77;;;13.10;99.90;;;;;;5051778;28;20057;-76
2023/10/21 04:55:18;;;;;;;24.25;9.57;;;13.20;99.90;;;;;;5048079;28;20035;-76
2023/10/21 04:57:43;;;;;;;23.60;9.80;;;13.20;99.90;;;;;;5037982;28;20018;-77
2023/10/21 05:00:10;;;;;;;20.17;9.60;;;13.30;99.90;;;;;;5050886;28;20491;-77
2023/10/21 05:02:36;;;;;;;22.80;9.43;;;13.40;99.90;;;;;;5043087;28;20033;-76
2023/10/21 05:05:01;;;;;;;23.50;9.40;;;13.40;99.90;;;;;;5049834;28;20104;-76
2023/10/21 05:07:27;;;;;;;18.80;8.90;;;13.40;99.90;;;;;;5051598;28;20036;-76
2023/10/21 05:09:53;;;;;;;18.92;8.43;;;13.40;99.90;;;;;;5050647;28;20025;-76
2023/10/21 05:12:19;;;;;;;18.42;8.43;;;13.40;99.90;;;;;;5051012;28;20025;-76
2023/10/21 05:14:45;;;;;;;21.05;8.60;;;13.50;99.90;;;;;;5050736;28;20100;-76
2023/10/21 05:17:11;;;;;;;21.65;7.68;;;13.50;99.90;;;;;;5048149;28;20028;-77
2023/10/21 05:19:37;;;;;;;17.45;7.90;;;13.50;99.90;;;;;;5046875;28;20389;-76
2023/10/21 05:22:02;;;;;;;18.05;7.45;;;13.50;99.90;;;;;;5049683;28;20504;-76
2023/10/21 05:24:28;;;;;;;17.23;7.07;;;13.50;99.90;;;;;;5046500;28;20021;-76
2023/10/21 05:26:54;;;;;;;18.45;7.45;;;13.50;99.90;;;;;;5050753;28;20017;-76
2023/10/21 05:29:19;;;;;;;19.73;7.28;;;13.60;99.90;;;;;;5050666;28;20021;-76
2023/10/21 05:31:45;;;;;;;18.65;7.55;;;13.50;99.90;;;;;;5050882;28;20013;-76
2023/10/21 05:34:17;;;;;;;17.55;6.82;;;13.60;99.90;;;;;;5051176;28;20029;-76
2023/10/21 05:36:43;;;;;;;15.30;7.20;;;13.60;99.90;;;;;;5051046;28;20458;-76
2023/10/21 05:39:11;;;;;;;18.60;6.85;;;13.60;99.90;;;;;;5050617;28;20277;-77
2023/10/21 05:41:37;;;;;;;18.73;6.65;;;13.60;99.90;;;;;;5049554;28;20025;-77
2023/10/21 05:44:03;;;;;;;15.80;6.78;;;13.60;99.90;;;;;;5049700;28;20040;-76
2023/10/21 05:46:29;;;;;;;14.95;6.72;;;13.60;99.90;;;;;;5048742;28;20025;-76
2023/10/21 05:48:54;;;;;;;19.95;7.00;;;13.60;99.90;;;;;;5048770;28;20017;-76
2023/10/21 05:51:20;;;;;;;12.95;6.28;;;13.60;99.90;;;;;;5046612;28;20025;-75
2023/10/21 05:53:46;;;;;;;14.95;6.25;;;13.60;99.90;;;;;;5049207;28;20031;-75
2023/10/21 05:56:12;;;;;;;15.40;7.00;;;13.60;99.90;;;;;;5048584;28;20028;-76
2023/10/21 05:58:40;;;;;;;12.50;6.03;;;13.60;99.90;;;;;;5050069;28;20052;-75
2023/10/21 06:01:11;;;;;;;13.77;6.40;;;13.60;99.90;;;;;;5048906;28;20532;-75
2023/10/21 06:03:37;;;;;;;16.77;6.28;;;13.60;99.90;;;;;;5048679;28;20025;-76
2023/10/21 06:06:03;;;;;;;15.23;6.72;;;13.60;99.90;;;;;;5048678;28;20016;-75
2023/10/21 06:08:29;;;;;;;19.20;6.57;;;13.60;99.90;;;;;;5047283;28;20025;-76
2023/10/21 06:10:56;;;;;;;15.35;6.75;;;13.60;99.90;;;;;;5063065;28;20095;-75
2023/10/21 06:13:21;;;;;;;17.00;7.03;;;13.60;99.90;;;;;;5049618;28;20025;-76
2023/10/21 06:15:48;;;;;;;19.70;7.28;;;13.60;99.90;;;;;;5043924;28;20036;-75
2023/10/21 06:18:14;;;;;;;19.50;7.70;;;13.60;99.90;;;;;;5042358;28;20381;-75
2023/10/21 06:20:39;;;;;;;16.88;7.65;;;13.60;99.90;;;;;;5049534;28;20029;-75
2023/10/21 06:23:05;;;;;;;18.02;7.68;;;13.60;99.90;;;;;;5048507;28;20033;-76
2023/10/21 06:25:31;;;;;;;18.00;8.13;;;13.60;99.90;;;;;;5048076;28;20017;-75
2023/10/21 06:27:58;;;;;;;18.58;8.18;;;13.60;99.90;;;;;;5035361;28;20504;-75
2023/10/21 06:30:23;;;;;;;15.88;7.60;;;13.70;99.90;;;;;;5049456;28;20029;-75
2023/10/21 06:32:49;;;;;;;17.42;8.38;;;13.70;99.90;;;;;;5045279;28;20498;-76
2023/10/21 06:35:15;;;;;;;21.25;7.50;;;13.60;99.90;;;;;;5047136;28;20492;-76
2023/10/21 06:37:40;;;;;;;16.63;7.65;;;13.70;99.90;;;;;;5049072;28;20382;-76
2023/10/21 06:40:06;;;;;;;15.73;7.30;;;13.70;99.90;;;;;;5049756;28;20458;-75
2023/10/21 06:42:33;;;;;;;20.30;8.25;;;13.70;99.90;;;;;;5049338;28;20497;-75
2023/10/21 06:44:58;;;;;;;21.60;8.07;;;13.70;99.90;;;;;;5048881;28;20724;-75
2023/10/21 06:47:24;;;;;;;17.65;7.18;;;13.70;99.90;;;;;;5049296;28;20112;-75
2023/10/21 06:49:50;;;;;;;17.10;7.90;;;13.70;99.90;;;;;;5049145;28;20025;-75
2023/10/21 06:52:17;;;;;;;17.30;7.70;;;13.80;99.90;;;;;;5049011;28;20044;-75
2023/10/21 06:54:44;;;;;;;17.80;7.20;;;13.80;99.90;;;;;;5049040;28;20120;-75
2023/10/21 06:57:09;;;;;;;15.73;6.07;;;13.80;99.90;;;;;;5041832;28;20032;-75
2023/10/21 06:59:35;;;;;;;8.30;4.90;;;13.80;99.90;;;;;;5044792;28;20032;-75
2023/10/21 07:02:01;;;;;;;11.77;5.82;;;13.80;99.90;;;;;;5060439;28;20031;-75
2023/10/21 07:04:26;;;;;;;14.10;6.00;;;13.80;99.90;;;;;;5049646;28;20033;-75
2023/10/21 07:06:52;;;;;;;12.43;6.00;;;13.80;99.90;;;;;;5048436;28;20025;-76
2023/10/21 07:09:17;;;;;;;16.38;5.75;;;13.80;99.90;;;;;;5049501;28;20529;-75
2023/10/21 07:11:43;;;;;;;14.18;6.53;;;13.90;99.90;;;;;;5047864;28;20132;-76
2023/10/21 07:14:09;;;;;;;13.48;6.32;;;13.90;99.90;;;;;;5048504;28;20110;-75
2023/10/21 07:16:34;;;;;;;16.08;6.50;;;13.90;99.90;;;;;;5049211;28;20048;-75
2023/10/21 07:19:00;;;;;;;12.75;6.35;;;13.90;99.90;;;;;;5046354;28;20025;-76
2023/10/21 07:21:25;;;;;;;13.65;6.10;;;13.90;99.90;;;;;;5040518;28;20484;-75
2023/10/21 07:23:51;;;;;;;13.82;5.78;;;13.90;99.90;;;;;;5039073;28;20025;-75
2023/10/21 07:26:17;;;;;;;10.43;5.40;;;13.90;99.90;;;;;;5048795;28;20025;-75
2023/10/21 07:28:42;;;;;;;12.13;5.28;;;14.00;99.90;;;;;;5043751;28;20014;-76
2023/10/21 07:31:08;;;;;;;16.50;5.45;;;14.00;99.90;;;;;;5041258;28;20083;-75
2023/10/21 07:33:35;;;;;;;10.93;4.95;;;14.00;99.90;;;;;;5045757;28;20031;-75
2023/10/21 07:36:01;;;;;;;12.50;4.40;;;14.00;99.90;;;;;;5040981;28;20108;-75
2023/10/21 07:38:26;;;;;;;8.10;3.90;;;14.00;99.90;;;;;;5047670;28;20108;-75
2023/10/21 07:40:52;;;;;;;11.43;3.75;;;14.10;99.90;;;;;;5041039;28;20095;-75
2023/10/21 07:43:18;;;;;;;9.45;3.67;;;14.10;99.90;;;;;;5051816;28;20127;-75
2023/10/21 07:45:44;;;;;;;10.00;3.63;;;14.10;99.90;;;;;;5052164;28;20409;-75
2023/10/21 07:48:10;;;;;;;10.13;3.83;;;14.10;99.90;;;;;;5052671;28;20036;-75
2023/10/21 07:50:37;;;;;;;11.75;4.10;;;14.10;99.90;;;;;;5052367;28;20100;-76
2023/10/21 07:53:03;;;;;;;9.88;3.75;;;14.10;99.90;;;;;;5044552;28;20073;-77
2023/10/21 07:55:29;;;;;;;9.82;4.05;;;14.10;99.90;;;;;;5052338;28;20037;-76
2023/10/21 07:57:55;;;;;;;11.05;4.35;;;14.10;99.90;;;;;;5052927;28;20023;-76
2023/10/21 08:00:21;;;;;;;10.23;4.20;;;14.00;99.90;;;;;;5051632;28;20132;-75
2023/10/21 08:02:47;;;;;;;6.38;3.80;;;14.00;99.90;;;;;;5048875;28;20448;-75
2023/10/21 08:05:13;;;;;;;8.82;3.90;;;14.00;99.90;;;;;;5051839;28;20032;-76
2023/10/21 08:07:39;;;;;;;8.93;3.97;;;14.00;99.90;;;;;;5050812;28;20029;-77
2023/10/21 08:10:05;;;;;;;7.93;3.67;;;14.00;99.90;;;;;;5051242;28;20030;-75
2023/10/21 08:12:32;;;;;;;8.23;3.42;;;14.00;99.90;;;;;;5055256;28;20524;-75
2023/10/21 08:14:58;;;;;;;7.15;3.60;;;14.00;99.90;;;;;;5055748;28;20374;-76
2023/10/21 08:17:24;;;;;;;8.90;3.35;;;14.00;99.90;;;;;;5053788;28;20029;-76
2023/10/21 08:19:50;;;;;;;7.28;3.42;;;14.00;99.90;;;;;;5052664;28;20104;-76
2023/10/21 08:22:16;;;;;;;4.72;2.97;;;14.00;99.90;;;;;;5066156;28;20147;-77
2023/10/21 08:24:41;;;;;;;4.88;2.30;;;13.90;99.90;;;;;;5052335;28;20021;-76
2023/10/21 08:27:07;;;;;;;2.72;1.90;;;13.90;99.90;;;;;;5050509;28;20108;-77
2023/10/21 08:29:32;;;;;;;5.53;1.67;;;13.90;99.90;;;;;;5050148;28;20398;-77
2023/10/21 08:31:58;;;;;;;5.43;1.65;;;13.90;99.90;;;;;;5049522;28;20028;-76
2023/10/21 08:34:23;;;;;;;5.97;1.38;;;13.90;99.90;;;;;;5051222;28;20024;-77
2023/10/21 08:36:49;;;;;;;3.92;1.30;;;13.90;99.90;;;;;;5052372;28;20037;-77
2023/10/21 08:39:15;;;;;;;8.15;1.60;;;13.90;99.90;;;;;;5049774;28;20687;-77
2023/10/21 08:41:40;;;;;;;4.18;1.30;;;13.80;99.90;;;;;;5051814;28;20037;-76
2023/10/21 08:44:08;;;;;;;2.55;1.20;;;13.80;99.90;;;;;;5051308;28;20029;-76
2023/10/21 08:46:34;;;;;;;2.20;1.13;;;13.80;99.90;;;;;;5039130;28;20082;-76
2023/10/21 08:49:03;;;;;;;3.92;1.33;;;13.80;99.90;;;;;;5051867;28;20071;-77
2023/10/21 08:51:30;;;;;;;3.60;1.50;;;13.80;99.90;;;;;;5049192;28;20017;-76
2023/10/21 08:54:03;;;;;;;4.13;1.20;;;13.80;99.90;;;;;;5049042;28;20055;-76
2023/10/21 08:56:33;;;;;;;3.38;1.23;;;13.80;99.90;;;;;;5051709;28;20077;-76
2023/10/21 08:59:00;;;;;;;2.42;1.48;;;13.80;99.90;;;;;;5051621;28;20018;-76
2023/10/21 09:01:26;;;;;;;1.88;1.40;;;13.80;99.90;;;;;;5040038;28;20031;-75
2023/10/21 09:03:54;;;;;;;4.22;1.42;;;13.80;99.90;;;;;;5050875;28;20025;-77
2023/10/21 09:06:20;;;;;;;3.83;1.50;;;13.80;99.90;;;;;;5049072;28;20051;-74
2023/10/21 09:08:47;;;;;;;4.68;1.40;;;13.80;99.90;;;;;;5052213;28;20124;-75
2023/10/21 09:11:26;;;;;;;2.05;1.25;;;13.80;99.90;;;;;;5062421;28;20025;-76
2023/10/21 09:13:58;;;;;;;4.85;1.10;;;13.90;99.90;;;;;;5050371;28;20017;-76
2023/10/21 09:16:29;;;;;;;6.63;1.50;;;13.80;99.90;;;;;;5050078;28;20036;-76
2023/10/21 09:19:00;;;;;;;2.72;1.20;;;13.90;99.90;;;;;;5049631;28;20025;-76
2023/10/21 09:21:44;;;;;;;3.97;1.15;;;13.90;99.90;;;;;;5046095;28;20021;-76
2023/10/21 09:24:22;;;;;;;2.15;1.20;;;13.90;99.90;;;;;;5050148;28;20040;-75
2023/10/21 09:26:48;;;;;;;4.15;1.40;;;13.90;99.90;;;;;;5049357;28;20401;-77
2023/10/21 09:29:18;;;;;;;3.75;1.30;;;13.90;99.90;;;;;;5048603;28;20063;-76
2023/10/21 09:31:55;;;;;;;4.63;1.50;;;13.90;99.90;;;;;;5051383;28;20394;-75
2023/10/21 09:34:34;;;;;;;3.35;1.23;;;14.00;99.90;;;;;;5047491;28;20656;-76
2023/10/21 09:37:04;;;;;;;4.55;1.20;;;14.10;99.90;;;;;;5051565;28;20052;-75
2023/10/21 09:39:37;;;;;;;5.50;1.27;;;14.10;99.90;;;;;;5048179;28;20052;-75
2023/10/21 09:42:05;;;;;;;4.22;1.15;;;14.20;99.90;;;;;;5049661;28;20575;-75
2023/10/21 09:44:31;;;;;;;5.10;1.30;;;14.20;99.90;;;;;;5048362;28;20061;-75
2023/10/21 09:47:00;;;;;;;2.53;1.00;;;14.30;99.90;;;;;;5048613;28;20033;-74
2023/10/21 09:49:29;;;;;;;6.75;1.10;;;14.40;99.90;;;;;;5051128;28;20017;-74
2023/10/21 09:52:09;;;;;;;4.85;1.00;;;14.50;99.90;;;;;;5048210;28;20124;-74
2023/10/21 09:55:05;;;;;;;3.38;1.20;;;14.60;99.90;;;;;;5045488;28;20035;-74
2023/10/21 09:57:31;;;;;;;;;;;14.70;99.90;;;;;;5046107;28;20027;-74
2023/10/21 09:59:58;;;;;;;6.90;1.08;;;14.80;99.90;;;;;;5048485;28;19999;-74
2023/10/21 10:02:26;;;;;;;5.82;1.20;;;14.90;99.90;;;;;;5043186;28;20128;-74
2023/10/21 10:04:53;;;;;;;3.90;1.00;;;14.90;99.90;;;;;;5047295;28;20013;-74
2023/10/21 10:07:20;;;;;;;5.78;1.23;;;14.90;99.90;;;;;;5047353;28;20494;-74
2023/10/21 10:09:47;;;;;;;4.22;1.10;;;15.00;99.90;;;;;;5049013;28;20482;-74
2023/10/21 10:12:23;;;;;;;5.35;1.00;;;15.10;99.90;;;;;;5042933;28;20048;-74
2023/10/21 10:14:49;;;;;;;5.28;1.15;;;15.10;99.90;;;;;;5042956;28;20078;-74
2023/10/21 10:18:01;;;;;;;4.43;1.10;;;15.10;99.90;;;;;;5046555;28;20034;-74
2023/10/21 10:20:27;;;;;;;5.72;1.02;;;15.10;99.90;;;;;;5040360;28;20044;-74
2023/10/21 10:23:12;;;;;;;6.40;1.20;;;15.00;99.90;;;;;;5047782;28;20044;-74
2023/10/21 10:25:46;;;;;;;6.55;1.30;;;15.10;99.90;;;;;;5047339;28;20028;-74
2023/10/21 10:28:25;;;;;;;3.22;0.90;;;15.10;99.90;;;;;;5048751;28;20040;-74
2023/10/21 10:30:51;;;;;;;5.30;1.00;;;15.20;99.90;;;;;;5037782;28;20111;-74
2023/10/21 10:33:24;;;;;;;5.65;1.10;;;15.30;99.90;;;;;;5049553;28;20082;-73
2023/10/21 10:35:55;;;;;;;5.05;1.10;;;15.30;99.90;;;;;;5049529;28;20032;-74
2023/10/21 10:38:27;;;;;;;5.55;0.90;;;15.30;99.90;;;;;;5047232;28;20033;-75
2023/10/21 10:41:09;;;;;;;4.95;1.00;;;15.30;99.90;;;;;;5049059;28;20086;-74
2023/10/21 10:43:38;;;;;;;4.60;1.02;;;15.40;99.90;;;;;;5049668;28;20044;-74
2023/10/21 10:46:05;;;;;;;4.72;1.35;;;15.40;99.90;;;;;;5045002;28;20024;-74
2023/10/21 10:48:31;;;;;;;6.22;1.15;;;15.40;99.90;;;;;;5045452;28;20033;-74
2023/10/21 10:51:01;;;;;;;7.40;1.20;;;15.40;99.90;;;;;;5049036;28;20013;-74
2023/10/21 10:53:27;;;;;;;2.53;0.90;;;15.50;99.90;;;;;;5048418;28;20069;-74
2023/10/21 10:55:56;;;;;;;4.95;1.15;;;15.50;99.90;;;;;;5048976;28;20052;-74
2023/10/21 10:58:26;;;;;;;8.88;1.33;;;15.50;99.90;;;;;;5048573;28;20043;-74
2023/10/21 11:00:52;;;;;;;7.10;1.30;;;15.50;99.90;;;;;;5046469;28;20366;-74
2023/10/21 11:03:27;;;;;;;6.15;1.20;;;15.40;99.90;;;;;;5046118;28;20557;-74
2023/10/21 11:05:55;;;;;;;15.77;1.83;;;15.30;99.90;;;;;;5045309;28;20040;-74
2023/10/21 11:08:21;;;;;;;6.70;1.50;;;15.30;99.90;;;;;;5048378;28;20044;-73
2023/10/21 11:10:47;;;;;;;4.88;1.20;;;15.30;99.90;;;;;;5048339;28;20424;-75
2023/10/21 11:13:13;;;;;;;8.15;1.52;;;15.30;99.90;;;;;;5037818;28;20032;-74
2023/10/21 11:15:47;;;;;;;5.25;1.40;;;15.20;99.90;;;;;;5048394;28;20021;-75
2023/10/21 11:18:15;;;;;;;4.40;1.10;;;15.20;99.90;;;;;;5047257;28;20032;-75
2023/10/21 11:20:47;;;;;;;8.15;1.30;;;15.20;99.90;;;;;;5048549;28;20013;-75
2023/10/21 11:23:14;;;;;;;6.82;1.27;;;15.30;99.90;;;;;;5048152;28;20083;-75
2023/10/21 11:25:41;;;;;;;7.10;1.40;;;15.40;99.90;;;;;;5046915;28;20436;-75
2023/10/21 11:28:07;;;;;;;9.65;1.52;;;15.60;99.90;;;;;;5048091;28;20482;-75
2023/10/21 11:30:34;;;;;;;7.90;1.20;;;15.80;99.90;;;;;;5048504;28;20040;-74
2023/10/21 11:33:09;;;;;;;7.35;1.30;;;15.80;99.90;;;;;;5049089;28;20359;-75
2023/10/21 11:35:39;;;;;;;6.68;1.33;;;16.00;99.90;;;;;;5048324;28;20041;-74
2023/10/21 11:38:06;;;;;;;6.50;1.73;;;16.00;99.90;;;;;;5047777;28;20072;-75
2023/10/21 11:40:35;;;;;;;6.30;1.45;;;16.20;99.90;;;;;;5049248;28;20029;-74
2023/10/21 11:43:04;;;;;;;9.10;1.48;;;16.20;99.90;;;;;;5047985;28;20072;-73
2023/10/21 11:45:30;;;;;;;7.55;1.27;;;16.30;99.90;;;;;;5048296;28;20104;-72
2023/10/21 11:48:08;;;;;;;7.57;1.50;;;16.40;99.90;;;;;;5048399;28;20068;-74
2023/10/21 11:50:42;;;;;;;9.30;1.42;;;16.50;99.90;;;;;;5049607;28;20037;-72
2023/10/21 11:53:09;;;;;;;8.10;1.75;;;16.50;99.90;;;;;;5045814;28;20513;-72
2023/10/21 12:14:31;;;;;;;9.55;1.85;;;16.00;99.90;;;;;;5048535;28;20029;-72
2023/10/21 12:19:46;;;;;;;12.90;2.25;;;16.00;99.90;;;;;;5046210;28;20056;-73
2023/10/21 12:22:32;;;;;;;11.50;2.17;;;16.10;99.90;;;;;;5050211;28;20107;-72
2023/10/21 12:25:56;;;;;;;14.05;1.95;;;16.10;99.90;;;;;;5052633;28;20115;-72
2023/10/21 12:43:49;;;;;;;13.27;2.40;;;15.50;99.90;;;;;;5052217;28;20071;-73
2023/10/21 12:46:18;;;;;;;8.57;2.10;;;15.30;99.90;;;;;;5051993;28;20056;-73
2023/10/21 12:48:46;;;;;;;14.27;2.28;;;15.10;99.90;;;;;;5048929;28;20029;-73
2023/10/21 12:51:15;;;;;;;14.48;2.20;;;15.00;99.90;;;;;;5051868;28;20100;-74
2023/10/21 12:53:41;;;;;;;12.43;2.42;;;14.90;99.90;;;;;;5049885;28;20452;-74
2023/10/21 12:56:07;;;;;;;16.27;2.15;;;14.90;99.90;;;;;;5051054;28;20013;-74
2023/10/21 12:58:33;;;;;;;12.15;2.17;;;14.90;99.90;;;;;;5050846;28;20021;-74
2023/10/21 13:01:00;;;;;;;13.23;2.17;;;14.90;99.90;;;;;;5050120;28;20087;-73
2023/10/21 13:03:26;;;;;;;13.00;2.28;;;14.90;99.90;;;;;;5043839;28;20021;-73
2023/10/21 13:05:52;;;;;;;14.93;2.03;;;14.90;99.90;;;;;;5048968;28;20182;-74
2023/10/21 13:08:18;;;;;;;7.60;1.92;;;14.90;99.90;;;;;;5047435;28;20029;-74
2023/10/21 13:10:44;;;;;;;13.35;1.73;;;14.80;99.90;;;;;;5036231;28;20520;-73
2023/10/21 13:13:12;;;;;;;13.05;1.60;;;14.80;99.90;;;;;;5051097;28;20112;-73
2023/10/21 13:15:37;;;;;;;15.50;2.05;;;14.70;99.90;;;;;;5050547;28;20017;-73